createdAt,value
2018-11-20T00:01:39.891Z,7.80
2018-11-20T00:04:39.064Z,7.80
2018-11-20T00:07:24.713Z,7.70
2018-11-20T00:10:13.421Z,7.70
2018-11-20T00:13:07.444Z,7.70
2018-11-20T00:15:57.531Z,7.70
2018-11-20T00:18:41.484Z,7.60
2018-11-20T00:21:28.879Z,7.60
2018-11-20T00:24:20.534Z,7.60
2018-11-20T00:27:25.885Z,7.60
2018-11-20T00:30:19.352Z,7.60
2018-11-20T00:33:02.900Z,7.60
2018-11-20T00:35:55.705Z,7.60
2018-11-20T00:38:45.964Z,7.50
2018-11-20T00:41:45.662Z,7.50
2018-11-20T00:44:34.398Z,7.50
2018-11-20T00:47:29.633Z,7.50
2018-11-20T00:50:19.659Z,7.40
2018-11-20T00:53:08.846Z,7.40
2018-11-20T00:56:51.923Z,7.50
2018-11-20T00:59:55.696Z,7.40
2018-11-20T01:02:57.977Z,7.50
2018-11-20T01:05:46.458Z,7.50
2018-11-20T01:08:51.809Z,7.60
2018-11-20T01:11:44.580Z,7.70
2018-11-20T01:14:28.288Z,7.80
2018-11-20T01:17:21.154Z,7.90
2018-11-20T01:20:21.248Z,8.00
2018-11-20T01:23:11.382Z,8.10
2018-11-20T01:25:59.908Z,8.20
2018-11-20T01:28:48.734Z,8.20
2018-11-20T01:31:51.137Z,8.30
2018-11-20T01:34:39.780Z,8.30
2018-11-20T01:37:41.890Z,8.40
2018-11-20T01:40:31.955Z,8.50
2018-11-20T01:43:20.468Z,8.50
2018-11-20T01:46:13.391Z,8.50
2018-11-20T01:49:12.112Z,8.50
2018-11-20T01:52:11.074Z,8.60
2018-11-20T01:55:10.082Z,8.60
2018-11-20T01:58:00.495Z,8.70
2018-11-20T02:01:02.695Z,8.70
2018-11-20T02:04:08.567Z,8.70
2018-11-20T02:07:04.244Z,8.70
2018-11-20T02:10:03.219Z,8.80
2018-11-20T02:12:52.105Z,8.80
2018-11-20T02:15:40.762Z,8.80
2018-11-20T02:18:44.706Z,8.80
2018-11-20T02:21:46.970Z,8.80
2018-11-20T02:24:37.071Z,8.70
2018-11-20T02:27:30.648Z,8.60
2018-11-20T02:30:26.067Z,8.60
2018-11-20T02:33:16.161Z,8.50
2018-11-20T02:36:05.114Z,8.40
2018-11-20T02:38:54.276Z,8.40
2018-11-20T02:41:43.092Z,8.40
2018-11-20T02:44:33.163Z,8.30
2018-11-20T02:47:38.505Z,8.30
2018-11-20T02:50:29.029Z,8.30
2018-11-20T02:53:25.090Z,8.30
2018-11-20T02:56:16.586Z,8.20
2018-11-20T02:59:05.492Z,8.20
2018-11-20T03:01:47.433Z,8.10
2018-11-20T03:04:37.968Z,8.10
2018-11-20T03:07:26.517Z,8.10
2018-11-20T03:10:15.878Z,8.10
2018-11-20T03:13:15.669Z,8.10
2018-11-20T03:16:08.728Z,8.10
2018-11-20T03:18:57.899Z,8.20
2018-11-20T03:21:43.399Z,8.30
2018-11-20T03:24:36.328Z,8.30
2018-11-20T03:27:25.229Z,8.40
2018-11-20T03:30:59.007Z,8.40
2018-11-20T03:33:49.364Z,8.40
2018-11-20T03:36:39.479Z,8.40
2018-11-20T03:39:38.531Z,8.40
2018-11-20T03:42:31.446Z,8.50
2018-11-20T03:45:20.162Z,8.50
2018-11-20T03:48:10.600Z,8.50
2018-11-20T03:50:59.433Z,8.50
2018-11-20T03:53:54.670Z,8.60
2018-11-20T03:56:45.496Z,8.60
2018-11-20T03:59:41.630Z,8.60
2018-11-20T04:02:30.156Z,8.70
2018-11-20T04:05:09.277Z,8.80
2018-11-20T04:07:59.358Z,8.80
2018-11-20T04:11:01.426Z,8.80
2018-11-20T04:13:57.267Z,8.90
2018-11-20T04:16:53.250Z,8.90
2018-11-20T04:19:49.290Z,8.90
2018-11-20T04:22:37.752Z,8.90
2018-11-20T04:25:27.459Z,8.90
2018-11-20T04:28:26.440Z,8.90
2018-11-20T04:31:55.549Z,8.90
2018-11-20T04:34:54.854Z,8.90
2018-11-20T04:37:59.818Z,8.90
2018-11-20T04:40:48.634Z,8.90
2018-11-20T04:43:44.705Z,8.90
2018-11-20T04:46:30.251Z,8.90
2018-11-20T04:49:17.377Z,8.90
2018-11-20T04:51:58.544Z,8.90
2018-11-20T04:54:40.946Z,9.00
2018-11-20T04:57:33.767Z,9.00
2018-11-20T05:00:35.895Z,9.00
2018-11-20T05:03:41.123Z,9.00
2018-11-20T05:06:34.343Z,9.00
2018-11-20T05:09:25.559Z,9.00
2018-11-20T05:12:14.305Z,8.90
2018-11-20T05:14:58.610Z,8.90
2018-11-20T05:18:04.044Z,8.90
2018-11-20T05:20:55.133Z,8.90
2018-11-20T05:23:48.113Z,8.90
2018-11-20T05:26:42.345Z,8.90
2018-11-20T05:29:32.485Z,8.90
2018-11-20T05:32:25.383Z,8.80
2018-11-20T05:35:14.537Z,8.80
2018-11-20T05:37:54.467Z,8.70
2018-11-20T05:40:41.107Z,8.70
2018-11-20T05:43:29.884Z,8.70
2018-11-20T05:46:27.924Z,8.70
2018-11-20T05:49:17.936Z,8.70
2018-11-20T05:52:11.855Z,8.70
2018-11-20T05:55:04.289Z,8.60
2018-11-20T05:57:54.276Z,8.70
2018-11-20T06:00:43.241Z,8.60
2018-11-20T06:03:22.219Z,8.60
2018-11-20T06:06:15.572Z,8.60
2018-11-20T06:09:14.448Z,8.50
2018-11-20T06:12:03.199Z,8.40
2018-11-20T06:14:58.398Z,8.30
2018-11-20T06:17:48.848Z,8.30
2018-11-20T06:20:40.903Z,8.30
2018-11-20T06:23:43.289Z,8.30
2018-11-20T06:26:31.773Z,8.30
2018-11-20T06:29:20.640Z,8.30
2018-11-20T06:32:10.678Z,8.40
2018-11-20T06:35:03.331Z,8.40
2018-11-20T06:38:02.334Z,8.40
2018-11-20T06:40:50.884Z,8.40
2018-11-20T06:43:39.482Z,8.50
2018-11-20T06:46:38.514Z,8.40
2018-11-20T06:49:27.079Z,8.40
2018-11-20T06:52:15.975Z,8.40
2018-11-20T06:55:16.352Z,8.40
2018-11-20T06:58:15.259Z,8.40
2018-11-20T07:01:05.260Z,8.50
2018-11-20T07:03:55.851Z,8.50
2018-11-20T07:06:45.176Z,8.50
2018-11-20T07:09:44.318Z,8.50
2018-11-20T07:12:32.172Z,8.50
2018-11-20T07:15:21.280Z,8.60
2018-11-20T07:18:20.730Z,8.60
2018-11-20T07:21:18.774Z,8.60
2018-11-20T07:24:13.504Z,8.60
2018-11-20T07:27:21.911Z,8.60
2018-11-20T07:30:06.565Z,8.60
2018-11-20T07:32:55.440Z,8.60
2018-11-20T07:35:51.565Z,8.60
2018-11-20T07:38:41.641Z,8.60
2018-11-20T07:41:37.801Z,8.50
2018-11-20T07:44:30.977Z,8.50
2018-11-20T07:47:30.218Z,8.50
2018-11-20T07:50:29.530Z,8.50
2018-11-20T07:53:18.615Z,8.50
2018-11-20T07:56:07.339Z,8.50
2018-11-20T07:58:51.069Z,8.50
2018-11-20T08:01:43.997Z,8.50
2018-11-20T08:04:36.897Z,8.50
2018-11-20T08:07:24.817Z,8.50
2018-11-20T08:10:13.759Z,8.50
2018-11-20T08:13:09.828Z,8.60
2018-11-20T08:15:58.549Z,8.60
2018-11-20T08:18:48.459Z,8.80
2018-11-20T08:21:44.605Z,9.10
2018-11-20T08:24:35.535Z,9.30
2018-11-20T08:27:20.732Z,9.40
2018-11-20T08:30:07.659Z,9.40
2018-11-20T08:33:09.778Z,9.30
2018-11-20T08:36:01.860Z,9.30
2018-11-20T08:39:09.976Z,9.20
2018-11-20T08:41:59.611Z,9.20
2018-11-20T08:44:52.124Z,9.20
2018-11-20T08:47:48.161Z,9.10
2018-11-20T08:50:44.121Z,9.10
2018-11-20T08:53:33.153Z,9.10
2018-11-20T08:56:16.355Z,9.00
2018-11-20T08:59:21.669Z,9.00
2018-11-20T09:02:20.610Z,8.90
2018-11-20T09:05:19.197Z,8.80
2018-11-20T09:08:21.375Z,8.70
2018-11-20T09:11:14.807Z,8.60
2018-11-20T09:14:03.500Z,8.60
2018-11-20T09:16:56.315Z,8.60
2018-11-20T09:19:52.132Z,8.60
2018-11-20T09:22:51.342Z,8.60
2018-11-20T09:25:44.596Z,8.60
2018-11-20T09:28:33.407Z,8.60
2018-11-20T09:31:24.434Z,8.60
2018-11-20T09:34:13.299Z,8.60
2018-11-20T09:37:01.916Z,8.70
2018-11-20T09:39:57.769Z,8.80
2018-11-20T09:42:38.916Z,8.90
2018-11-20T09:46:11.908Z,9.00
2018-11-20T09:49:00.457Z,9.10
2018-11-20T09:51:53.468Z,9.10
2018-11-20T09:54:42.334Z,9.20
2018-11-20T09:57:33.252Z,9.30
2018-11-20T10:00:35.219Z,9.40
2018-11-20T10:03:19.890Z,9.40
2018-11-20T10:06:10.846Z,9.50
2018-11-20T10:09:01.474Z,9.60
2018-11-20T10:12:03.232Z,9.60
2018-11-20T10:14:56.129Z,9.70
2018-11-20T10:18:04.144Z,9.70
2018-11-20T10:20:52.804Z,9.80
2018-11-20T10:23:41.485Z,9.80
2018-11-20T10:26:49.387Z,9.90
2018-11-20T10:29:45.352Z,10.10
2018-11-20T10:32:38.929Z,10.10
2018-11-20T10:35:47.584Z,9.90
2018-11-20T10:38:40.576Z,10.10
2018-11-20T10:41:30.622Z,10.10
2018-11-20T10:44:23.183Z,10.20
2018-11-20T10:47:13.470Z,10.20
2018-11-20T10:50:12.384Z,10.30
2018-11-20T10:53:20.843Z,10.40
2018-11-20T10:56:09.437Z,10.50
2018-11-20T10:58:59.863Z,10.50
2018-11-20T11:01:48.761Z,10.60
2018-11-20T11:04:37.643Z,10.60
2018-11-20T11:07:47.887Z,10.50
2018-11-20T11:10:38.138Z,10.50
2018-11-20T11:13:31.045Z,10.60
2018-11-20T11:16:19.599Z,10.70
2018-11-20T11:19:10.784Z,10.80
2018-11-20T11:22:15.546Z,10.90
2018-11-20T11:25:24.538Z,10.90
2018-11-20T11:28:27.468Z,11.00
2018-11-20T11:31:23.809Z,11.00
2018-11-20T11:34:07.541Z,11.10
2018-11-20T11:36:52.064Z,10.80
2018-11-20T11:39:51.080Z,11.10
2018-11-20T11:42:41.613Z,11.10
2018-11-20T11:45:50.128Z,11.10
2018-11-20T11:48:38.906Z,11.00
2018-11-20T11:51:16.063Z,10.90
2018-11-20T11:54:06.528Z,10.80
2018-11-20T11:56:55.112Z,10.70
2018-11-20T11:59:50.091Z,10.90
2018-11-20T12:05:20.255Z,11.20
2018-11-20T12:08:22.365Z,11.20
2018-11-20T12:11:24.608Z,11.20
2018-11-20T12:14:14.733Z,11.10
2018-11-20T12:17:15.281Z,11.00
2018-11-20T12:20:05.458Z,10.80
2018-11-20T12:22:44.910Z,10.60
2018-11-20T12:25:40.861Z,10.40
2018-11-20T12:28:32.762Z,10.20
2018-11-20T12:31:14.233Z,10.00
2018-11-20T12:34:07.259Z,9.90
2018-11-20T12:36:56.856Z,9.80
2018-11-20T12:40:06.592Z,9.70
2018-11-20T12:43:12.842Z,9.70
2018-11-20T12:46:21.789Z,9.70
2018-11-20T12:49:18.757Z,9.70
2018-11-20T12:52:15.784Z,9.70
2018-11-20T12:54:58.080Z,9.80
2018-11-20T12:58:04.065Z,9.80
2018-11-20T13:00:55.236Z,9.90
2018-11-20T13:03:45.169Z,9.90
2018-11-20T13:06:43.017Z,9.90
2018-11-20T13:09:46.833Z,10.00
2018-11-20T13:12:36.837Z,10.00
2018-11-20T13:15:20.616Z,10.10
2018-11-20T13:18:09.191Z,10.20
2018-11-20T13:20:56.781Z,10.20
2018-11-20T13:23:46.973Z,10.20
2018-11-20T13:26:36.184Z,10.20
2018-11-20T13:29:31.901Z,10.10
2018-11-20T13:32:40.362Z,10.10
2018-11-20T13:35:39.365Z,10.00
2018-11-20T13:38:29.317Z,9.90
2018-11-20T13:42:02.035Z,9.80
2018-11-20T13:44:59.796Z,9.70
2018-11-20T13:47:43.403Z,9.70
2018-11-20T13:50:32.183Z,9.70
2018-11-20T13:53:21.151Z,9.60
2018-11-20T13:56:10.213Z,9.60
2018-11-20T13:58:59.049Z,9.60
2018-11-20T14:01:51.864Z,9.60
2018-11-20T14:04:51.166Z,9.70
2018-11-20T14:07:40.621Z,9.70
2018-11-20T14:10:32.229Z,9.50
2018-11-20T14:13:21.537Z,9.50
2018-11-20T14:16:05.699Z,9.50
2018-11-20T14:19:18.383Z,9.50
2018-11-20T14:22:15.786Z,9.50
2018-11-20T14:24:57.654Z,9.40
2018-11-20T14:27:45.135Z,9.40
2018-11-20T14:30:34.194Z,9.40
2018-11-20T14:33:20.244Z,9.50
2018-11-20T14:36:08.934Z,9.50
2018-11-20T14:39:05.182Z,9.50
2018-11-20T14:41:55.585Z,9.40
2018-11-20T14:44:32.674Z,9.50
2018-11-20T14:47:26.457Z,9.40
2018-11-20T14:50:31.570Z,9.40
2018-11-20T14:53:11.469Z,9.40
2018-11-20T14:56:04.659Z,9.40
2018-11-20T14:58:54.820Z,9.40
2018-11-20T15:01:54.063Z,9.40
2018-11-20T15:04:47.900Z,9.40
2018-11-20T15:07:42.561Z,9.40
2018-11-20T15:10:38.301Z,9.40
2018-11-20T15:13:31.596Z,9.40
2018-11-20T15:16:21.497Z,9.30
2018-11-20T15:19:17.722Z,9.20
2018-11-20T15:22:12.222Z,9.20
2018-11-20T15:25:18.830Z,9.10
2018-11-20T15:28:18.311Z,9.10
2018-11-20T15:31:23.281Z,9.00
2018-11-20T15:34:21.950Z,9.00
2018-11-20T15:37:27.543Z,9.00
2018-11-20T15:40:17.355Z,9.00
2018-11-20T15:43:19.605Z,8.90
2018-11-20T15:46:10.736Z,8.80
2018-11-20T15:49:08.356Z,8.80
2018-11-20T15:51:57.060Z,8.80
2018-11-20T15:54:47.109Z,8.80
2018-11-20T15:57:30.446Z,8.80
2018-11-20T16:01:12.084Z,8.70
2018-11-20T16:03:59.234Z,8.70
2018-11-20T16:06:45.237Z,8.70
2018-11-20T16:09:35.347Z,8.70
2018-11-20T16:12:27.277Z,8.70
2018-11-20T16:15:28.159Z,8.70
2018-11-20T16:18:28.719Z,8.70
2018-11-20T16:21:15.928Z,8.80
2018-11-20T16:24:07.498Z,8.80
2018-11-20T16:26:46.033Z,8.70
2018-11-20T16:29:33.492Z,8.70
2018-11-20T16:32:21.064Z,8.70
2018-11-20T16:35:16.862Z,8.70
2018-11-20T16:38:14.120Z,8.60
2018-11-20T16:41:09.242Z,8.60
2018-11-20T16:43:56.875Z,8.60
2018-11-20T16:46:37.470Z,8.60
2018-11-20T16:49:26.568Z,8.60
2018-11-20T16:52:21.496Z,8.70
2018-11-20T16:55:09.102Z,8.70
2018-11-20T16:58:00.554Z,8.70
2018-11-20T17:00:50.354Z,8.60
2018-11-20T17:03:41.160Z,8.60
2018-11-20T17:06:39.290Z,8.60
2018-11-20T17:09:29.101Z,8.50
2018-11-20T17:12:17.931Z,8.50
2018-11-20T17:15:09.282Z,8.50
2018-11-20T17:17:56.914Z,8.50
2018-11-20T17:20:44.422Z,8.50
2018-11-20T17:23:27.951Z,8.50
2018-11-20T17:26:15.135Z,8.50
2018-11-20T17:29:09.796Z,8.60
2018-11-20T17:31:58.618Z,8.60
2018-11-20T17:34:53.194Z,8.70
2018-11-20T17:37:40.782Z,8.80
2018-11-20T17:40:31.153Z,8.60
2018-11-20T17:43:31.981Z,8.80
2018-11-20T17:46:23.511Z,8.80
2018-11-20T17:49:10.908Z,8.80
2018-11-20T17:51:58.287Z,8.80
2018-11-20T17:54:45.954Z,8.80
2018-11-20T17:57:35.870Z,8.80
2018-11-20T18:00:24.814Z,8.80
2018-11-20T18:03:13.585Z,8.80
2018-11-20T18:06:09.758Z,8.80
2018-11-20T18:08:58.430Z,8.80
2018-11-20T18:11:49.857Z,8.80
2018-11-20T18:14:42.363Z,8.80
2018-11-20T18:17:40.683Z,8.70
2018-11-20T18:20:47.322Z,8.70
2018-11-20T18:23:25.669Z,8.60
2018-11-20T18:26:27.357Z,8.60
2018-11-20T18:29:35.862Z,8.60
2018-11-20T18:32:30.671Z,8.60
2018-11-20T18:35:19.996Z,8.60
2018-11-20T18:38:12.642Z,8.60
2018-11-20T18:41:13.541Z,8.60
2018-11-20T18:44:05.855Z,8.50
2018-11-20T18:46:54.745Z,8.60
2018-11-20T18:49:42.413Z,8.60
2018-11-20T18:52:30.299Z,8.60
2018-11-20T18:55:19.056Z,8.60
2018-11-20T18:58:22.751Z,8.60
2018-11-20T19:01:21.530Z,8.60
2018-11-20T19:04:16.066Z,8.60
2018-11-20T19:07:15.226Z,8.60
2018-11-20T19:09:59.205Z,8.60
2018-11-20T19:12:48.248Z,8.50
2018-11-20T19:15:47.944Z,8.50
2018-11-20T19:18:52.233Z,8.50
2018-11-20T19:21:39.461Z,8.60
2018-11-20T19:24:34.069Z,8.50
2018-11-20T19:27:25.954Z,8.50
2018-11-20T19:30:16.908Z,8.50
2018-11-20T19:33:04.760Z,8.50
2018-11-20T19:35:56.541Z,8.50
2018-11-20T19:38:54.322Z,8.50
2018-11-20T19:41:39.702Z,8.50
2018-11-20T19:44:40.708Z,8.50
2018-11-20T19:47:32.399Z,8.50
2018-11-20T19:50:20.232Z,8.50
2018-11-20T19:53:07.621Z,8.50
2018-11-20T19:55:58.932Z,8.50
2018-11-20T19:59:01.762Z,8.60
2018-11-20T20:01:54.136Z,8.60
2018-11-20T20:04:41.826Z,8.60
2018-11-20T20:07:30.068Z,8.50
2018-11-20T20:10:19.853Z,8.50
2018-11-20T20:13:15.541Z,8.50
2018-11-20T20:16:04.362Z,8.50
2018-11-20T20:18:59.251Z,8.50
2018-11-20T20:21:48.031Z,8.50
2018-11-20T20:24:42.363Z,8.50
2018-11-20T20:27:43.189Z,8.50
2018-11-20T20:30:29.831Z,8.50
2018-11-20T20:33:16.421Z,8.60
2018-11-20T20:36:03.557Z,8.60
2018-11-20T20:38:55.301Z,8.60
2018-11-20T20:41:42.823Z,8.60
2018-11-20T20:44:44.863Z,8.60
2018-11-20T20:47:32.279Z,8.60
2018-11-20T20:50:24.010Z,8.60
2018-11-20T20:53:11.287Z,8.60
2018-11-20T20:55:58.737Z,8.60
2018-11-20T20:58:46.107Z,8.60
2018-11-20T21:01:43.791Z,8.60
2018-11-20T21:04:39.097Z,8.60
2018-11-20T21:07:29.258Z,8.50
2018-11-20T21:10:21.142Z,8.60
2018-11-20T21:13:21.951Z,8.60
2018-11-20T21:16:16.757Z,8.60
2018-11-20T21:19:20.721Z,8.60
2018-11-20T21:22:08.661Z,8.60
2018-11-20T21:25:06.507Z,8.60
2018-11-20T21:27:53.274Z,8.60
2018-11-20T21:30:43.381Z,8.60
2018-11-20T21:33:28.182Z,8.60
2018-11-20T21:36:19.610Z,8.60
2018-11-20T21:39:12.400Z,8.60
2018-11-20T21:42:07.249Z,8.70
2018-11-20T21:44:48.479Z,8.70
2018-11-20T21:47:28.506Z,8.60
2018-11-20T21:50:12.476Z,8.60
2018-11-20T21:52:59.611Z,8.70
2018-11-20T21:55:47.177Z,8.70
2018-11-20T21:58:53.902Z,8.70
2018-11-20T22:01:46.843Z,8.80
2018-11-20T22:04:35.524Z,8.80
2018-11-20T22:07:24.471Z,8.80
2018-11-20T22:10:12.246Z,8.80
2018-11-20T22:12:59.598Z,8.80
2018-11-20T22:15:46.894Z,8.80
2018-11-20T22:18:34.380Z,8.80
2018-11-20T22:21:21.605Z,8.80
2018-11-20T22:24:10.403Z,8.70
2018-11-20T22:27:03.828Z,8.70
2018-11-20T22:29:50.024Z,8.60
2018-11-20T22:32:38.819Z,8.60
2018-11-20T22:35:26.190Z,8.70
2018-11-20T22:38:23.946Z,8.70
2018-11-20T22:41:23.190Z,8.70
2018-11-20T22:44:23.691Z,8.70
2018-11-20T22:47:01.518Z,8.70
2018-11-20T22:49:50.378Z,8.80
2018-11-20T22:52:38.260Z,8.80
2018-11-20T22:55:28.458Z,8.80
2018-11-20T22:58:21.146Z,8.80
2018-11-20T23:01:18.437Z,8.80
2018-11-20T23:04:07.360Z,8.80
2018-11-20T23:07:00.634Z,8.80
2018-11-20T23:09:33.465Z,8.80
2018-11-20T23:12:03.393Z,8.70
2018-11-20T23:14:33.212Z,8.70
2018-11-20T23:17:05.436Z,8.70
2018-11-20T23:19:35.322Z,8.70
2018-11-20T23:22:05.242Z,8.70
2018-11-20T23:24:35.134Z,8.70
2018-11-20T23:27:05.234Z,8.80
2018-11-20T23:29:35.147Z,8.80
2018-11-20T23:32:05.075Z,8.80
2018-11-20T23:34:34.990Z,8.70
2018-11-20T23:37:04.883Z,8.70
2018-11-20T23:39:34.740Z,8.70
2018-11-20T23:42:06.468Z,8.70
2018-11-20T23:44:36.272Z,8.70
2018-11-20T23:47:07.239Z,8.70
2018-11-20T23:49:37.149Z,8.70
2018-11-20T23:52:06.942Z,8.70
2018-11-20T23:54:36.880Z,8.80
2018-11-20T23:57:06.982Z,8.90
2018-11-20T23:59:37.621Z,8.90
